sensor_id;sensor_type;location;lat;lon;timestamp;pressure;altitude;pressure_sealevel;temperature;humidity
20987;BME280;10652;50.306;8.570;2023-06-05T00:00:43;98323.81;;;8.90;69.00
20987;BME280;10652;50.306;8.570;2023-06-05T00:04:45;98324.63;;;8.90;69.51
20987;BME280;10652;50.306;8.570;2023-06-05T00:08:47;98321.94;;;8.93;69.52
20987;BME280;10652;50.306;8.570;2023-06-05T00:12:49;98328.97;;;8.91;69.51
20987;BME280;10652;50.306;8.570;2023-06-05T00:16:52;98326.34;;;8.91;68.90
20987;BME280;10652;50.306;8.570;2023-06-05T00:20:54;98333.59;;;8.85;68.80
20987;BME280;10652;50.306;8.570;2023-06-05T00:24:56;98329.59;;;8.75;69.67
20987;BME280;10652;50.306;8.570;2023-06-05T00:28:58;98322.31;;;8.83;69.92
20987;BME280;10652;50.306;8.570;2023-06-05T00:33:01;98318.22;;;8.76;69.10
20987;BME280;10652;50.306;8.570;2023-06-05T00:37:03;98317.91;;;8.58;69.55
20987;BME280;10652;50.306;8.570;2023-06-05T00:41:05;98309.41;;;8.53;70.01
20987;BME280;10652;50.306;8.570;2023-06-05T00:45:08;98309.28;;;8.56;69.84
20987;BME280;10652;50.306;8.570;2023-06-05T00:49:11;98310.22;;;8.54;69.71
20987;BME280;10652;50.306;8.570;2023-06-05T00:53:13;98324.63;;;8.41;70.06
20987;BME280;10652;50.306;8.570;2023-06-05T00:57:16;98311.72;;;8.36;70.97
20987;BME280;10652;50.306;8.570;2023-06-05T01:01:18;98309.59;;;8.47;71.35
20987;BME280;10652;50.306;8.570;2023-06-05T01:05:23;98310.22;;;8.54;70.92
20987;BME280;10652;50.306;8.570;2023-06-05T01:09:26;98312.00;;;8.53;70.38
20987;BME280;10652;50.306;8.570;2023-06-05T01:13:33;98307.69;;;8.52;69.93
20987;BME280;10652;50.306;8.570;2023-06-05T01:17:37;98309.47;;;8.25;69.85
20987;BME280;10652;50.306;8.570;2023-06-05T01:21:39;98308.91;;;8.16;70.80
20987;BME280;10652;50.306;8.570;2023-06-05T01:25:42;98307.16;;;8.15;71.27
20987;BME280;10652;50.306;8.570;2023-06-05T01:29:50;98304.31;;;8.22;71.57
20987;BME280;10652;50.306;8.570;2023-06-05T01:34:02;98300.22;;;8.14;71.20
20987;BME280;10652;50.306;8.570;2023-06-05T01:38:08;98296.09;;;8.07;71.16
20987;BME280;10652;50.306;8.570;2023-06-05T01:42:13;98297.16;;;8.01;71.53
20987;BME280;10652;50.306;8.570;2023-06-05T01:46:18;98292.19;;;7.94;71.82
20987;BME280;10652;50.306;8.570;2023-06-05T01:50:20;98300.25;;;7.86;72.47
20987;BME280;10652;50.306;8.570;2023-06-05T01:54:22;98296.00;;;7.83;72.80
20987;BME280;10652;50.306;8.570;2023-06-05T01:58:26;98299.63;;;7.79;72.65
20987;BME280;10652;50.306;8.570;2023-06-05T02:02:28;98296.47;;;7.68;72.77
20987;BME280;10652;50.306;8.570;2023-06-05T02:06:33;98284.34;;;7.67;73.55
20987;BME280;10652;50.306;8.570;2023-06-05T02:10:43;98301.91;;;7.62;73.28
20987;BME280;10652;50.306;8.570;2023-06-05T02:14:45;98282.97;;;7.54;74.05
20987;BME280;10652;50.306;8.570;2023-06-05T02:18:48;98279.56;;;7.52;74.24
20987;BME280;10652;50.306;8.570;2023-06-05T02:22:50;98284.19;;;7.44;73.74
20987;BME280;10652;50.306;8.570;2023-06-05T02:26:54;98278.31;;;7.36;74.62
20987;BME280;10652;50.306;8.570;2023-06-05T02:30:57;98284.22;;;7.43;74.62
20987;BME280;10652;50.306;8.570;2023-06-05T02:35:01;98281.47;;;7.47;74.60
20987;BME280;10652;50.306;8.570;2023-06-05T02:39:04;98280.59;;;7.47;74.46
20987;BME280;10652;50.306;8.570;2023-06-05T02:43:09;98277.53;;;7.34;74.10
20987;BME280;10652;50.306;8.570;2023-06-05T02:47:13;98282.19;;;7.23;74.47
20987;BME280;10652;50.306;8.570;2023-06-05T02:51:16;98281.47;;;7.18;74.75
20987;BME280;10652;50.306;8.570;2023-06-05T02:55:20;98281.06;;;7.04;75.34
20987;BME280;10652;50.306;8.570;2023-06-05T02:59:23;98279.47;;;6.98;75.46
20987;BME280;10652;50.306;8.570;2023-06-05T03:03:32;98276.78;;;7.00;76.01
20987;BME280;10652;50.306;8.570;2023-06-05T03:07:35;98276.78;;;7.00;76.23
20987;BME280;10652;50.306;8.570;2023-06-05T03:11:41;98271.63;;;6.98;76.39
20987;BME280;10652;50.306;8.570;2023-06-05T03:15:43;98277.72;;;6.99;76.49
20987;BME280;10652;50.306;8.570;2023-06-05T03:19:49;98280.72;;;6.85;76.53
20987;BME280;10652;50.306;8.570;2023-06-05T03:23:52;98275.38;;;6.89;76.86
20987;BME280;10652;50.306;8.570;2023-06-05T03:27:55;98276.00;;;6.98;77.46
20987;BME280;10652;50.306;8.570;2023-06-05T03:32:00;98264.56;;;7.02;76.50
20987;BME280;10652;50.306;8.570;2023-06-05T03:36:03;98269.06;;;6.97;76.47
20987;BME280;10652;50.306;8.570;2023-06-05T03:40:08;98277.47;;;7.06;76.56
20987;BME280;10652;50.306;8.570;2023-06-05T03:44:11;98276.34;;;7.15;76.18
20987;BME280;10652;50.306;8.570;2023-06-05T03:48:14;98275.28;;;7.22;76.11
20987;BME280;10652;50.306;8.570;2023-06-05T03:52:17;98275.97;;;7.27;75.32
20987;BME280;10652;50.306;8.570;2023-06-05T03:56:26;98281.06;;;7.59;75.15
20987;BME280;10652;50.306;8.570;2023-06-05T04:00:44;98281.78;;;9.16;73.08
20987;BME280;10652;50.306;8.570;2023-06-05T04:04:46;98271.31;;;10.65;66.71
20987;BME280;10652;50.306;8.570;2023-06-05T04:08:48;98281.25;;;11.91;61.16
20987;BME280;10652;50.306;8.570;2023-06-05T04:12:50;98268.19;;;13.08;57.29
20987;BME280;10652;50.306;8.570;2023-06-05T04:16:52;98267.19;;;14.21;53.31
20987;BME280;10652;50.306;8.570;2023-06-05T04:20:57;98266.88;;;15.27;50.46
20987;BME280;10652;50.306;8.570;2023-06-05T04:25:00;98263.56;;;16.20;47.90
20987;BME280;10652;50.306;8.570;2023-06-05T04:29:02;98266.88;;;17.01;45.79
20987;BME280;10652;50.306;8.570;2023-06-05T04:33:05;98271.53;;;17.84;44.36
20987;BME280;10652;50.306;8.570;2023-06-05T04:37:11;98262.72;;;18.31;42.66
20987;BME280;10652;50.306;8.570;2023-06-05T04:41:13;98263.19;;;19.28;41.12
20987;BME280;10652;50.306;8.570;2023-06-05T04:45:15;98249.47;;;20.21;40.00
20987;BME280;10652;50.306;8.570;2023-06-05T04:49:22;98252.13;;;21.15;38.45
20987;BME280;10652;50.306;8.570;2023-06-05T04:53:25;98254.41;;;22.09;37.02
20987;BME280;10652;50.306;8.570;2023-06-05T04:57:30;98247.50;;;22.83;35.65
20987;BME280;10652;50.306;8.570;2023-06-05T05:01:35;98268.03;;;23.58;34.84
20987;BME280;10652;50.306;8.570;2023-06-05T05:05:37;98261.41;;;24.34;33.59
20987;BME280;10652;50.306;8.570;2023-06-05T05:09:40;98252.66;;;25.11;32.25
20987;BME280;10652;50.306;8.570;2023-06-05T05:13:43;98255.66;;;25.76;31.63
20987;BME280;10652;50.306;8.570;2023-06-05T05:17:45;98252.16;;;26.58;30.48
20987;BME280;10652;50.306;8.570;2023-06-05T05:21:48;98259.56;;;27.37;29.64
20987;BME280;10652;50.306;8.570;2023-06-05T05:25:50;98252.28;;;27.92;28.87
20987;BME280;10652;50.306;8.570;2023-06-05T05:29:52;98243.97;;;28.56;27.91
20987;BME280;10652;50.306;8.570;2023-06-05T05:33:55;98253.75;;;28.79;27.84
20987;BME280;10652;50.306;8.570;2023-06-05T05:37:58;98244.44;;;29.34;27.95
20987;BME280;10652;50.306;8.570;2023-06-05T05:42:00;98250.78;;;29.85;26.72
20987;BME280;10652;50.306;8.570;2023-06-05T05:46:02;98257.69;;;30.38;26.77
20987;BME280;10652;50.306;8.570;2023-06-05T05:50:05;98252.00;;;30.97;25.42
20987;BME280;10652;50.306;8.570;2023-06-05T05:54:07;98259.34;;;31.24;25.22
20987;BME280;10652;50.306;8.570;2023-06-05T05:58:09;98259.78;;;31.97;24.51
20987;BME280;10652;50.306;8.570;2023-06-05T06:02:11;98260.03;;;32.95;23.36
20987;BME280;10652;50.306;8.570;2023-06-05T06:06:14;98256.59;;;32.54;22.85
20987;BME280;10652;50.306;8.570;2023-06-05T06:10:16;98260.38;;;31.58;23.03
20987;BME280;10652;50.306;8.570;2023-06-05T06:14:19;98270.44;;;31.08;22.86
20987;BME280;10652;50.306;8.570;2023-06-05T06:18:21;98254.75;;;30.04;24.18
20987;BME280;10652;50.306;8.570;2023-06-05T06:22:23;98255.53;;;29.98;24.40
20987;BME280;10652;50.306;8.570;2023-06-05T06:26:25;98255.81;;;29.44;25.04
20987;BME280;10652;50.306;8.570;2023-06-05T06:30:29;98261.97;;;29.23;25.46
20987;BME280;10652;50.306;8.570;2023-06-05T06:34:33;98263.69;;;29.83;25.26
20987;BME280;10652;50.306;8.570;2023-06-05T06:38:36;98264.88;;;30.10;24.84
20987;BME280;10652;50.306;8.570;2023-06-05T06:42:38;98263.78;;;30.26;24.40
20987;BME280;10652;50.306;8.570;2023-06-05T06:46:50;98267.84;;;30.15;24.65
20987;BME280;10652;50.306;8.570;2023-06-05T06:50:52;98272.53;;;31.06;24.09
20987;BME280;10652;50.306;8.570;2023-06-05T06:54:54;98269.84;;;30.85;24.03
20987;BME280;10652;50.306;8.570;2023-06-05T06:58:56;98270.97;;;31.80;23.56
20987;BME280;10652;50.306;8.570;2023-06-05T07:02:58;98261.53;;;32.17;22.66
20987;BME280;10652;50.306;8.570;2023-06-05T07:07:01;98263.06;;;31.51;22.70
20987;BME280;10652;50.306;8.570;2023-06-05T07:11:03;98269.84;;;30.85;23.96
20987;BME280;10652;50.306;8.570;2023-06-05T07:15:05;98260.78;;;30.56;24.33
20987;BME280;10652;50.306;8.570;2023-06-05T07:19:08;98260.59;;;27.03;26.78
20987;BME280;10652;50.306;8.570;2023-06-05T07:23:10;98268.75;;;23.87;30.79
20987;BME280;10652;50.306;8.570;2023-06-05T07:27:12;98272.50;;;22.16;33.04
20987;BME280;10652;50.306;8.570;2023-06-05T07:31:14;98264.84;;;21.62;34.39
20987;BME280;10652;50.306;8.570;2023-06-05T07:35:17;98262.06;;;21.13;38.19
20987;BME280;10652;50.306;8.570;2023-06-05T07:39:20;98265.81;;;21.21;38.38
20987;BME280;10652;50.306;8.570;2023-06-05T07:43:22;98260.00;;;20.95;35.88
20987;BME280;10652;50.306;8.570;2023-06-05T07:47:24;98258.28;;;20.32;36.08
20987;BME280;10652;50.306;8.570;2023-06-05T07:51:28;98265.41;;;20.11;37.30
20987;BME280;10652;50.306;8.570;2023-06-05T07:55:30;98258.66;;;19.62;37.11
20987;BME280;10652;50.306;8.570;2023-06-05T07:59:33;98266.31;;;19.45;37.80
20987;BME280;10652;50.306;8.570;2023-06-05T08:03:35;98271.44;;;19.25;38.46
20987;BME280;10652;50.306;8.570;2023-06-05T08:07:37;98265.06;;;19.04;38.62
20987;BME280;10652;50.306;8.570;2023-06-05T08:11:39;98261.84;;;19.23;38.97
20987;BME280;10652;50.306;8.570;2023-06-05T08:15:43;98270.44;;;19.15;38.93
20987;BME280;10652;50.306;8.570;2023-06-05T08:19:45;98264.16;;;19.27;38.52
20987;BME280;10652;50.306;8.570;2023-06-05T08:23:48;98256.50;;;19.45;39.26
20987;BME280;10652;50.306;8.570;2023-06-05T08:27:50;98263.91;;;19.53;38.52
20987;BME280;10652;50.306;8.570;2023-06-05T08:31:52;98257.38;;;19.35;38.44
20987;BME280;10652;50.306;8.570;2023-06-05T08:35:54;98252.88;;;19.46;39.08
20987;BME280;10652;50.306;8.570;2023-06-05T08:39:56;98250.94;;;19.59;39.63
20987;BME280;10652;50.306;8.570;2023-06-05T08:44:02;98246.59;;;19.47;40.42
20987;BME280;10652;50.306;8.570;2023-06-05T08:48:05;98249.00;;;19.50;40.00
20987;BME280;10652;50.306;8.570;2023-06-05T08:52:08;98242.94;;;19.59;39.66
20987;BME280;10652;50.306;8.570;2023-06-05T08:56:11;98246.44;;;19.71;39.50
20987;BME280;10652;50.306;8.570;2023-06-05T09:00:13;98236.00;;;19.68;39.36
20987;BME280;10652;50.306;8.570;2023-06-05T09:04:16;98240.38;;;19.80;39.05
20987;BME280;10652;50.306;8.570;2023-06-05T09:08:29;98237.75;;;19.90;38.43
20987;BME280;10652;50.306;8.570;2023-06-05T09:12:57;98243.84;;;19.92;39.30
20987;BME280;10652;50.306;8.570;2023-06-05T09:17:01;98238.63;;;20.01;38.30
20987;BME280;10652;50.306;8.570;2023-06-05T09:21:11;98246.16;;;19.96;38.75
20987;BME280;10652;50.306;8.570;2023-06-05T09:25:14;98233.28;;;20.01;39.16
20987;BME280;10652;50.306;8.570;2023-06-05T09:29:37;98233.38;;;20.11;37.98
20987;BME280;10652;50.306;8.570;2023-06-05T09:33:40;98228.66;;;20.03;39.19
20987;BME280;10652;50.306;8.570;2023-06-05T09:37:42;98227.41;;;20.18;39.19
20987;BME280;10652;50.306;8.570;2023-06-05T09:41:48;98227.59;;;20.27;38.06
20987;BME280;10652;50.306;8.570;2023-06-05T09:45:51;98232.94;;;20.27;39.26
20987;BME280;10652;50.306;8.570;2023-06-05T09:49:53;98221.09;;;20.20;38.87
20987;BME280;10652;50.306;8.570;2023-06-05T09:53:57;98217.75;;;20.38;39.06
20987;BME280;10652;50.306;8.570;2023-06-05T09:57:59;98216.81;;;20.49;38.38
20987;BME280;10652;50.306;8.570;2023-06-05T10:02:04;98224.25;;;20.45;38.42
20987;BME280;10652;50.306;8.570;2023-06-05T10:06:08;98219.25;;;20.52;38.60
20987;BME280;10652;50.306;8.570;2023-06-05T10:10:21;98211.13;;;20.74;38.72
20987;BME280;10652;50.306;8.570;2023-06-05T10:14:23;98207.84;;;20.91;38.02
20987;BME280;10652;50.306;8.570;2023-06-05T10:18:26;98202.06;;;20.86;38.70
20987;BME280;10652;50.306;8.570;2023-06-05T10:22:29;98217.22;;;20.86;37.40
20987;BME280;10652;50.306;8.570;2023-06-05T10:35:47;98202.59;;;21.11;35.60
20987;BME280;10652;50.306;8.570;2023-06-05T10:39:51;98197.13;;;21.22;35.33
20987;BME280;10652;50.306;8.570;2023-06-05T10:43:53;98199.00;;;21.31;34.96
20987;BME280;10652;50.306;8.570;2023-06-05T10:47:57;98199.88;;;21.41;34.08
20987;BME280;10652;50.306;8.570;2023-06-05T10:51:59;98196.59;;;21.58;33.54
20987;BME280;10652;50.306;8.570;2023-06-05T10:56:05;98190.16;;;21.70;31.17
20987;BME280;10652;50.306;8.570;2023-06-05T11:00:08;98183.94;;;21.60;31.74
20987;BME280;10652;50.306;8.570;2023-06-05T11:04:13;98187.72;;;21.48;32.43
20987;BME280;10652;50.306;8.570;2023-06-05T11:08:16;98185.03;;;21.48;32.33
20987;BME280;10652;50.306;8.570;2023-06-05T11:12:20;98182.25;;;21.59;33.83
20987;BME280;10652;50.306;8.570;2023-06-05T11:16:34;98182.97;;;21.80;34.09
20987;BME280;10652;50.306;8.570;2023-06-05T11:20:51;98171.59;;;21.98;33.05
20987;BME280;10652;50.306;8.570;2023-06-05T11:29:18;98180.31;;;22.00;34.20
20987;BME280;10652;50.306;8.570;2023-06-05T11:33:21;98166.94;;;22.09;33.11
20987;BME280;10652;50.306;8.570;2023-06-05T11:37:24;98156.56;;;22.16;33.45
20987;BME280;10652;50.306;8.570;2023-06-05T11:41:27;98156.09;;;22.11;33.10
20987;BME280;10652;50.306;8.570;2023-06-05T11:45:29;98153.97;;;22.05;32.36
20987;BME280;10652;50.306;8.570;2023-06-05T11:49:32;98148.75;;;22.13;33.73
20987;BME280;10652;50.306;8.570;2023-06-05T11:53:34;98152.72;;;22.28;33.22
20987;BME280;10652;50.306;8.570;2023-06-05T11:57:40;98151.03;;;22.17;32.42
20987;BME280;10652;50.306;8.570;2023-06-05T12:01:53;98159.06;;;22.27;32.72
20987;BME280;10652;50.306;8.570;2023-06-05T12:05:56;98150.31;;;22.44;33.18
20987;BME280;10652;50.306;8.570;2023-06-05T12:09:59;98137.31;;;22.59;32.76
20987;BME280;10652;50.306;8.570;2023-06-05T12:14:02;98140.38;;;22.73;32.93
20987;BME280;10652;50.306;8.570;2023-06-05T12:18:04;98135.19;;;22.62;33.64
20987;BME280;10652;50.306;8.570;2023-06-05T12:22:07;98136.59;;;22.66;32.55
20987;BME280;10652;50.306;8.570;2023-06-05T12:26:11;98146.31;;;22.67;31.71
20987;BME280;10652;50.306;8.570;2023-06-05T12:30:14;98139.28;;;22.66;31.19
20987;BME280;10652;50.306;8.570;2023-06-05T12:34:18;98129.56;;;22.65;31.85
20987;BME280;10652;50.306;8.570;2023-06-05T12:38:21;98122.56;;;22.82;31.96
20987;BME280;10652;50.306;8.570;2023-06-05T12:42:24;98123.66;;;22.99;31.18
20987;BME280;10652;50.306;8.570;2023-06-05T12:46:26;98118.75;;;22.94;29.68
20987;BME280;10652;50.306;8.570;2023-06-05T12:50:28;98108.28;;;23.01;31.04
20987;BME280;10652;50.306;8.570;2023-06-05T12:54:30;98110.88;;;23.20;29.65
20987;BME280;10652;50.306;8.570;2023-06-05T12:58:32;98111.00;;;23.18;29.45
20987;BME280;10652;50.306;8.570;2023-06-05T13:02:35;98105.44;;;23.12;29.81
20987;BME280;10652;50.306;8.570;2023-06-05T13:06:40;98096.38;;;23.13;31.14
20987;BME280;10652;50.306;8.570;2023-06-05T13:10:43;98103.69;;;22.93;31.37
20987;BME280;10652;50.306;8.570;2023-06-05T13:14:45;98103.97;;;22.80;31.91
20987;BME280;10652;50.306;8.570;2023-06-05T13:18:47;98095.25;;;22.78;32.67
20987;BME280;10652;50.306;8.570;2023-06-05T13:22:49;98107.03;;;22.95;33.52
20987;BME280;10652;50.306;8.570;2023-06-05T13:26:52;98105.50;;;22.93;32.23
20987;BME280;10652;50.306;8.570;2023-06-05T13:30:54;98092.13;;;22.83;31.41
20987;BME280;10652;50.306;8.570;2023-06-05T13:34:56;98092.25;;;22.81;31.42
20987;BME280;10652;50.306;8.570;2023-06-05T13:38:59;98083.75;;;22.96;31.09
20987;BME280;10652;50.306;8.570;2023-06-05T13:43:01;98092.59;;;23.06;30.90
20987;BME280;10652;50.306;8.570;2023-06-05T13:47:04;98092.84;;;23.12;32.08
20987;BME280;10652;50.306;8.570;2023-06-05T13:51:06;98091.38;;;23.00;30.67
20987;BME280;10652;50.306;8.570;2023-06-05T13:55:08;98086.34;;;22.88;30.53
20987;BME280;10652;50.306;8.570;2023-06-05T13:59:10;98084.53;;;22.78;30.78
20987;BME280;10652;50.306;8.570;2023-06-05T14:03:13;98079.63;;;22.74;30.13
20987;BME280;10652;50.306;8.570;2023-06-05T14:07:15;98074.34;;;22.82;30.34
20987;BME280;10652;50.306;8.570;2023-06-05T14:11:17;98071.66;;;22.92;30.28
20987;BME280;10652;50.306;8.570;2023-06-05T14:15:19;98067.59;;;22.88;29.20
20987;BME280;10652;50.306;8.570;2023-06-05T14:19:22;98069.44;;;22.77;30.75
20987;BME280;10652;50.306;8.570;2023-06-05T14:23:24;98066.63;;;22.79;29.03
20987;BME280;10652;50.306;8.570;2023-06-05T14:27:26;98064.19;;;22.86;29.94
20987;BME280;10652;50.306;8.570;2023-06-05T14:31:29;98056.66;;;22.99;29.86
20987;BME280;10652;50.306;8.570;2023-06-05T14:35:31;98048.81;;;23.15;29.40
20987;BME280;10652;50.306;8.570;2023-06-05T14:39:33;98066.00;;;22.95;28.09
20987;BME280;10652;50.306;8.570;2023-06-05T14:43:35;98061.50;;;22.86;29.36
20987;BME280;10652;50.306;8.570;2023-06-05T14:47:38;98062.69;;;22.73;28.90
20987;BME280;10652;50.306;8.570;2023-06-05T14:51:40;98056.75;;;22.79;28.56
20987;BME280;10652;50.306;8.570;2023-06-05T14:55:42;98055.28;;;22.85;28.91
20987;BME280;10652;50.306;8.570;2023-06-05T14:59:44;98056.13;;;22.95;29.29
20987;BME280;10652;50.306;8.570;2023-06-05T15:03:47;98053.91;;;22.91;29.79
20987;BME280;10652;50.306;8.570;2023-06-05T15:07:49;98046.84;;;22.90;29.54
20987;BME280;10652;50.306;8.570;2023-06-05T15:11:51;98039.81;;;22.89;29.40
20987;BME280;10652;50.306;8.570;2023-06-05T15:15:54;98045.81;;;23.00;30.33
20987;BME280;10652;50.306;8.570;2023-06-05T15:19:56;98039.59;;;23.00;30.64
20987;BME280;10652;50.306;8.570;2023-06-05T15:23:59;98041.22;;;22.93;29.31
20987;BME280;10652;50.306;8.570;2023-06-05T15:28:01;98035.41;;;22.97;29.80
20987;BME280;10652;50.306;8.570;2023-06-05T15:32:04;98040.31;;;23.02;29.57
20987;BME280;10652;50.306;8.570;2023-06-05T15:36:20;98042.34;;;22.80;29.69
20987;BME280;10652;50.306;8.570;2023-06-05T15:40:22;98052.56;;;22.67;30.14
20987;BME280;10652;50.306;8.570;2023-06-05T15:44:24;98047.41;;;22.56;28.29
20987;BME280;10652;50.306;8.570;2023-06-05T15:48:26;98040.38;;;22.55;29.29
20987;BME280;10652;50.306;8.570;2023-06-05T15:52:28;98035.16;;;22.54;29.68
20987;BME280;10652;50.306;8.570;2023-06-05T15:56:33;98039.41;;;22.47;28.50
20987;BME280;10652;50.306;8.570;2023-06-05T16:00:35;98039.72;;;22.44;28.71
20987;BME280;10652;50.306;8.570;2023-06-05T16:04:38;98046.50;;;22.38;28.77
20987;BME280;10652;50.306;8.570;2023-06-05T16:08:40;98033.25;;;22.36;29.19
20987;BME280;10652;50.306;8.570;2023-06-05T16:12:43;98034.22;;;22.35;30.57
20987;BME280;10652;50.306;8.570;2023-06-05T16:16:45;98023.69;;;22.34;29.98
20987;BME280;10652;50.306;8.570;2023-06-05T16:20:47;98028.22;;;22.24;29.35
20987;BME280;10652;50.306;8.570;2023-06-05T16:24:49;98025.53;;;22.24;29.39
20987;BME280;10652;50.306;8.570;2023-06-05T16:28:51;98022.56;;;22.27;30.46
20987;BME280;10652;50.306;8.570;2023-06-05T16:32:53;98020.19;;;22.24;30.95
20987;BME280;10652;50.306;8.570;2023-06-05T16:36:56;98025.25;;;22.27;31.19
20987;BME280;10652;50.306;8.570;2023-06-05T16:40:58;98023.16;;;22.21;31.17
20987;BME280;10652;50.306;8.570;2023-06-05T16:45:00;98022.31;;;22.11;30.67
20987;BME280;10652;50.306;8.570;2023-06-05T16:49:02;98021.91;;;22.06;30.83
20987;BME280;10652;50.306;8.570;2023-06-05T16:53:04;98019.78;;;22.00;31.60
20987;BME280;10652;50.306;8.570;2023-06-05T16:57:07;98026.00;;;21.90;31.76
20987;BME280;10652;50.306;8.570;2023-06-05T17:01:09;98019.81;;;21.80;32.42
20987;BME280;10652;50.306;8.570;2023-06-05T17:05:11;98017.88;;;21.73;32.89
20987;BME280;10652;50.306;8.570;2023-06-05T17:09:17;98016.34;;;21.70;32.48
20987;BME280;10652;50.306;8.570;2023-06-05T17:13:19;98017.44;;;21.68;33.09
20987;BME280;10652;50.306;8.570;2023-06-05T17:17:21;98010.81;;;21.62;33.87
20987;BME280;10652;50.306;8.570;2023-06-05T17:21:23;98010.03;;;21.52;33.29
20987;BME280;10652;50.306;8.570;2023-06-05T17:25:26;98004.09;;;21.39;33.00
20987;BME280;10652;50.306;8.570;2023-06-05T17:29:28;98004.63;;;21.33;32.93
20987;BME280;10652;50.306;8.570;2023-06-05T17:33:30;98006.19;;;21.26;33.49
20987;BME280;10652;50.306;8.570;2023-06-05T17:37:32;98009.69;;;21.17;33.05
20987;BME280;10652;50.306;8.570;2023-06-05T17:41:35;98008.25;;;21.13;33.51
20987;BME280;10652;50.306;8.570;2023-06-05T17:45:37;98006.28;;;21.05;34.58
20987;BME280;10652;50.306;8.570;2023-06-05T17:49:39;98002.91;;;20.93;34.96
20987;BME280;10652;50.306;8.570;2023-06-05T17:53:42;98004.59;;;20.85;35.05
20987;BME280;10652;50.306;8.570;2023-06-05T17:57:45;98008.06;;;20.76;35.81
20987;BME280;10652;50.306;8.570;2023-06-05T18:01:53;98006.44;;;20.63;36.06
20987;BME280;10652;50.306;8.570;2023-06-05T18:05:56;98011.50;;;20.57;36.00
20987;BME280;10652;50.306;8.570;2023-06-05T18:09:58;98013.97;;;20.49;36.50
20987;BME280;10652;50.306;8.570;2023-06-05T18:14:01;98013.13;;;20.39;36.39
20987;BME280;10652;50.306;8.570;2023-06-05T18:18:06;98007.84;;;20.28;37.06
20987;BME280;10652;50.306;8.570;2023-06-05T18:22:09;98017.50;;;20.19;37.38
20987;BME280;10652;50.306;8.570;2023-06-05T18:26:11;98021.81;;;20.10;38.35
20987;BME280;10652;50.306;8.570;2023-06-05T18:30:19;98019.75;;;19.93;38.36
20987;BME280;10652;50.306;8.570;2023-06-05T18:34:22;98019.91;;;19.81;38.79
20987;BME280;10652;50.306;8.570;2023-06-05T18:38:24;98021.06;;;19.67;38.95
20987;BME280;10652;50.306;8.570;2023-06-05T18:42:26;98022.09;;;19.55;39.38
20987;BME280;10652;50.306;8.570;2023-06-05T18:46:28;98028.59;;;19.41;39.79
20987;BME280;10652;50.306;8.570;2023-06-05T18:50:31;98025.38;;;19.26;39.98
20987;BME280;10652;50.306;8.570;2023-06-05T18:54:33;98034.63;;;19.11;40.22
20987;BME280;10652;50.306;8.570;2023-06-05T18:58:35;98029.78;;;18.94;40.58
20987;BME280;10652;50.306;8.570;2023-06-05T19:02:37;98034.09;;;18.74;41.29
20987;BME280;10652;50.306;8.570;2023-06-05T19:06:40;98037.38;;;18.56;41.66
20987;BME280;10652;50.306;8.570;2023-06-05T19:10:42;98038.22;;;18.34;41.97
20987;BME280;10652;50.306;8.570;2023-06-05T19:14:44;98051.81;;;18.18;42.52
20987;BME280;10652;50.306;8.570;2023-06-05T19:18:46;98056.16;;;18.08;43.42
20987;BME280;10652;50.306;8.570;2023-06-05T19:22:48;98057.22;;;17.94;43.45
20987;BME280;10652;50.306;8.570;2023-06-05T19:26:50;98056.47;;;17.81;43.60
20987;BME280;10652;50.306;8.570;2023-06-05T19:30:52;98057.41;;;17.69;43.83
20987;BME280;10652;50.306;8.570;2023-06-05T19:34:54;98052.38;;;17.53;44.00
20987;BME280;10652;50.306;8.570;2023-06-05T19:38:57;98058.56;;;17.30;45.04
20987;BME280;10652;50.306;8.570;2023-06-05T19:42:59;98061.31;;;17.05;45.70
20987;BME280;10652;50.306;8.570;2023-06-05T19:47:01;98071.97;;;16.92;46.89
20987;BME280;10652;50.306;8.570;2023-06-05T19:51:03;98067.03;;;16.75;47.48
20987;BME280;10652;50.306;8.570;2023-06-05T19:55:06;98068.44;;;16.43;48.46
20987;BME280;10652;50.306;8.570;2023-06-05T19:59:09;98074.81;;;16.15;49.61
20987;BME280;10652;50.306;8.570;2023-06-05T20:03:11;98079.03;;;15.92;50.47
20987;BME280;10652;50.306;8.570;2023-06-05T20:07:13;98085.28;;;15.78;51.51
20987;BME280;10652;50.306;8.570;2023-06-05T20:11:15;98086.66;;;15.71;52.22
20987;BME280;10652;50.306;8.570;2023-06-05T20:15:17;98095.66;;;15.55;52.60
20987;BME280;10652;50.306;8.570;2023-06-05T20:19:19;98095.09;;;15.37;53.25
20987;BME280;10652;50.306;8.570;2023-06-05T20:23:21;98096.38;;;15.17;53.92
20987;BME280;10652;50.306;8.570;2023-06-05T20:27:24;98105.88;;;15.07;54.04
20987;BME280;10652;50.306;8.570;2023-06-05T20:31:26;98110.63;;;14.88;54.70
20987;BME280;10652;50.306;8.570;2023-06-05T20:35:28;98105.44;;;14.72;55.59
20987;BME280;10652;50.306;8.570;2023-06-05T20:39:32;98119.16;;;14.65;56.74
20987;BME280;10652;50.306;8.570;2023-06-05T20:43:34;98112.69;;;14.55;56.47
20987;BME280;10652;50.306;8.570;2023-06-05T20:47:36;98116.19;;;14.41;57.42
20987;BME280;10652;50.306;8.570;2023-06-05T20:51:41;98115.44;;;14.25;57.72
20987;BME280;10652;50.306;8.570;2023-06-05T20:55:44;98109.38;;;14.09;58.87
20987;BME280;10652;50.306;8.570;2023-06-05T20:59:47;98122.97;;;14.02;59.24
20987;BME280;10652;50.306;8.570;2023-06-05T21:03:52;98118.72;;;14.14;59.31
20987;BME280;10652;50.306;8.570;2023-06-05T21:07:54;98123.16;;;14.14;59.32
20987;BME280;10652;50.306;8.570;2023-06-05T21:11:56;98133.72;;;14.14;59.20
20987;BME280;10652;50.306;8.570;2023-06-05T21:15:58;98129.94;;;14.18;59.00
20987;BME280;10652;50.306;8.570;2023-06-05T21:20:01;98122.00;;;14.03;58.97
20987;BME280;10652;50.306;8.570;2023-06-05T21:24:04;98119.53;;;13.86;59.76
20987;BME280;10652;50.306;8.570;2023-06-05T21:28:06;98116.13;;;13.84;60.22
20987;BME280;10652;50.306;8.570;2023-06-05T21:32:08;98117.47;;;13.91;60.10
20987;BME280;10652;50.306;8.570;2023-06-05T21:36:11;98124.63;;;13.89;60.61
20987;BME280;10652;50.306;8.570;2023-06-05T21:40:13;98126.31;;;13.90;60.94
20987;BME280;10652;50.306;8.570;2023-06-05T21:44:17;98118.97;;;13.95;61.08